createdAt,value
2022-10-07T00:00:48.666Z,19.06
2022-10-07T00:03:15.037Z,19.05
2022-10-07T00:05:41.880Z,19.05
2022-10-07T00:08:08.199Z,19.02
2022-10-07T00:10:34.542Z,19.00
2022-10-07T00:13:00.876Z,18.99
2022-10-07T00:15:27.772Z,18.98
2022-10-07T00:17:54.194Z,18.96
2022-10-07T00:20:20.561Z,18.95
2022-10-07T00:22:46.947Z,18.93
2022-10-07T00:25:13.288Z,18.92
2022-10-07T00:27:39.625Z,18.90
2022-10-07T00:30:05.895Z,18.89
2022-10-07T00:32:32.343Z,18.87
2022-10-07T00:34:58.738Z,18.86
2022-10-07T00:37:25.465Z,18.84
2022-10-07T00:39:51.825Z,18.82
2022-10-07T00:42:18.121Z,18.82
2022-10-07T00:44:44.505Z,18.80
2022-10-07T00:47:10.753Z,18.78
2022-10-07T00:49:37.010Z,18.77
2022-10-07T00:52:03.283Z,18.75
2022-10-07T00:54:29.567Z,18.75
2022-10-07T00:56:55.935Z,18.73
2022-10-07T00:59:22.398Z,18.72
2022-10-07T01:01:48.725Z,18.71
2022-10-07T01:04:15.113Z,18.69
2022-10-07T01:06:41.451Z,18.67
2022-10-07T01:09:07.860Z,18.66
2022-10-07T01:11:34.109Z,18.64
2022-10-07T01:14:00.935Z,18.62
2022-10-07T01:16:27.315Z,18.59
2022-10-07T01:18:53.622Z,18.59
2022-10-07T01:21:20.685Z,18.58
2022-10-07T01:23:46.996Z,18.56
2022-10-07T01:26:13.329Z,18.54
2022-10-07T01:28:40.047Z,18.53
2022-10-07T01:31:06.640Z,18.52
2022-10-07T01:33:33.344Z,18.51
2022-10-07T01:35:59.659Z,18.49
2022-10-07T01:38:26.368Z,18.48
2022-10-07T01:40:52.728Z,18.47
2022-10-07T01:43:19.007Z,18.45
2022-10-07T01:45:46.023Z,18.42
2022-10-07T01:48:12.494Z,18.41
2022-10-07T01:50:39.119Z,18.40
2022-10-07T01:53:05.424Z,18.39
2022-10-07T01:55:32.375Z,18.37
2022-10-07T01:57:59.034Z,18.35
2022-10-07T02:00:25.375Z,18.34
2022-10-07T02:02:51.877Z,18.32
2022-10-07T02:05:18.181Z,18.31
2022-10-07T02:07:45.459Z,18.29
2022-10-07T02:10:12.318Z,18.28
2022-10-07T02:12:39.702Z,18.26
2022-10-07T02:15:05.994Z,18.24
2022-10-07T02:17:32.327Z,18.24
2022-10-07T02:19:59.039Z,18.22
2022-10-07T02:22:25.400Z,18.19
2022-10-07T02:24:51.659Z,18.19
2022-10-07T02:27:18.031Z,18.17
2022-10-07T02:29:44.407Z,18.16
2022-10-07T02:32:10.649Z,18.16
2022-10-07T02:34:36.896Z,18.13
2022-10-07T02:37:03.212Z,18.12
2022-10-07T02:39:29.448Z,18.11
2022-10-07T02:41:55.743Z,18.09
2022-10-07T02:44:22.083Z,18.08
2022-10-07T02:46:48.434Z,18.06
2022-10-07T02:49:14.854Z,18.03
2022-10-07T02:51:41.551Z,18.03
2022-10-07T02:54:07.842Z,18.01
2022-10-07T02:56:34.281Z,17.99
2022-10-07T02:59:00.554Z,17.98
2022-10-07T03:01:26.887Z,17.97
2022-10-07T03:03:53.421Z,17.95
2022-10-07T03:06:20.059Z,17.92
2022-10-07T03:08:46.343Z,17.93
2022-10-07T03:11:12.664Z,17.91
2022-10-07T03:13:38.907Z,17.89
2022-10-07T03:16:05.342Z,17.88
2022-10-07T03:18:31.845Z,17.87
2022-10-07T03:20:58.134Z,17.85
2022-10-07T03:23:24.718Z,17.84
2022-10-07T03:25:51.063Z,17.82
2022-10-07T03:28:17.502Z,17.81
2022-10-07T03:30:43.933Z,17.80
2022-10-07T03:33:10.187Z,17.79
2022-10-07T03:35:36.857Z,17.78
2022-10-07T03:38:03.141Z,17.76
2022-10-07T03:40:30.099Z,17.74
2022-10-07T03:42:56.383Z,17.73
2022-10-07T03:45:22.816Z,17.72
2022-10-07T03:47:49.387Z,17.71
2022-10-07T03:50:15.746Z,17.70
2022-10-07T03:52:42.062Z,17.69
2022-10-07T03:55:08.395Z,17.67
2022-10-07T03:57:34.716Z,17.65
2022-10-07T04:00:01.141Z,17.64
2022-10-07T04:02:27.446Z,17.62
2022-10-07T04:04:53.834Z,17.61
2022-10-07T04:07:20.226Z,17.60
2022-10-07T04:09:46.650Z,17.58
2022-10-07T04:12:12.971Z,17.57
2022-10-07T04:14:39.420Z,17.57
2022-10-07T04:17:05.699Z,17.54
2022-10-07T04:19:31.993Z,17.52
2022-10-07T04:21:58.357Z,17.51
2022-10-07T04:24:24.691Z,17.49
2022-10-07T04:26:53.549Z,17.48
2022-10-07T04:29:20.428Z,17.47
2022-10-07T04:31:50.176Z,17.46
2022-10-07T04:34:16.586Z,17.44
2022-10-07T04:36:42.950Z,17.44
2022-10-07T04:39:09.316Z,17.43
2022-10-07T04:41:35.602Z,17.41
2022-10-07T04:46:52.176Z,17.38
2022-10-07T04:49:18.801Z,17.37
2022-10-07T04:51:45.109Z,17.36
2022-10-07T04:54:11.701Z,17.34
2022-10-07T04:56:38.143Z,17.33
2022-10-07T04:59:04.464Z,17.31
2022-10-07T05:01:30.799Z,17.30
2022-10-07T05:04:01.276Z,17.30
2022-10-07T05:06:27.798Z,17.29
2022-10-07T05:08:54.118Z,17.27
2022-10-07T05:11:20.739Z,17.26
2022-10-07T05:13:47.074Z,17.23
2022-10-07T05:16:13.500Z,17.23
2022-10-07T05:18:39.980Z,17.23
2022-10-07T05:21:06.212Z,17.21
2022-10-07T05:23:32.544Z,17.19
2022-10-07T05:25:58.845Z,17.17
2022-10-07T05:28:25.603Z,17.18
2022-10-07T05:30:51.921Z,17.17
2022-10-07T05:33:18.506Z,17.17
2022-10-07T05:35:44.768Z,17.16
2022-10-07T05:38:11.166Z,17.15
2022-10-07T05:40:37.467Z,17.15
2022-10-07T05:43:03.770Z,17.14
2022-10-07T05:45:30.138Z,17.14
2022-10-07T05:47:56.421Z,17.14
2022-10-07T05:50:23.193Z,17.14
2022-10-07T05:52:49.499Z,17.13
2022-10-07T05:55:15.858Z,17.14
2022-10-07T05:57:45.393Z,17.16
2022-10-07T06:00:11.858Z,17.31
2022-10-07T06:02:38.197Z,17.45
2022-10-07T06:05:04.641Z,17.57
2022-10-07T06:07:31.021Z,17.68
2022-10-07T06:09:57.329Z,17.80
2022-10-07T06:12:23.585Z,17.92
2022-10-07T06:14:49.844Z,17.99
2022-10-07T06:17:16.355Z,18.09
2022-10-07T06:19:42.615Z,18.16
2022-10-07T06:22:08.906Z,18.26
2022-10-07T06:24:35.182Z,18.34
2022-10-07T06:27:01.563Z,18.45
2022-10-07T06:29:27.865Z,18.56
2022-10-07T06:31:54.129Z,18.68
2022-10-07T06:34:20.394Z,18.80
2022-10-07T06:36:46.723Z,18.92
2022-10-07T06:39:13.024Z,19.03
2022-10-07T06:41:42.271Z,19.15
2022-10-07T06:44:08.583Z,19.26
2022-10-07T06:46:34.910Z,19.39
2022-10-07T06:49:01.291Z,19.50
2022-10-07T06:51:27.642Z,19.63
2022-10-07T06:53:53.965Z,19.75
2022-10-07T06:56:22.359Z,19.87
2022-10-07T06:58:48.628Z,20.01
2022-10-07T07:01:14.920Z,20.14
2022-10-07T07:03:41.747Z,20.26
2022-10-07T07:06:08.021Z,20.39
2022-10-07T07:08:34.403Z,20.51
2022-10-07T07:11:01.492Z,20.63
2022-10-07T07:13:27.936Z,20.75
2022-10-07T07:15:54.196Z,20.87
2022-10-07T07:18:20.502Z,21.00
2022-10-07T07:20:46.826Z,21.10
2022-10-07T07:23:13.232Z,21.22
2022-10-07T07:25:39.550Z,21.34
2022-10-07T07:28:05.946Z,21.44
2022-10-07T07:30:32.289Z,21.55
2022-10-07T07:33:01.401Z,21.68
2022-10-07T07:35:27.798Z,21.80
2022-10-07T07:37:54.409Z,21.92
2022-10-07T07:40:20.791Z,22.03
2022-10-07T07:42:47.097Z,22.14
2022-10-07T07:45:13.451Z,22.25
2022-10-07T07:47:39.807Z,22.34
2022-10-07T07:50:06.260Z,22.47
2022-10-07T07:52:33.367Z,22.60
2022-10-07T07:55:00.088Z,22.73
2022-10-07T07:57:29.059Z,22.90
2022-10-07T07:59:55.552Z,23.07
2022-10-07T08:02:21.939Z,23.24
2022-10-07T08:04:49.569Z,23.40
2022-10-07T08:07:15.836Z,23.57
2022-10-07T08:09:42.163Z,23.74
2022-10-07T08:12:08.457Z,23.91
2022-10-07T08:14:34.785Z,24.06
2022-10-07T08:17:01.082Z,24.20
2022-10-07T08:19:27.499Z,24.36
2022-10-07T08:21:53.875Z,24.52
2022-10-07T08:24:20.290Z,24.70
2022-10-07T08:26:46.616Z,24.84
2022-10-07T08:29:12.980Z,25.03
2022-10-07T08:31:39.275Z,25.18
2022-10-07T08:34:05.558Z,25.30
2022-10-07T08:36:31.882Z,25.41
2022-10-07T08:38:58.207Z,25.49
2022-10-07T08:41:24.457Z,25.55
2022-10-07T08:43:50.795Z,25.59
2022-10-07T08:46:17.135Z,25.62
2022-10-07T08:48:44.433Z,25.61
2022-10-07T08:51:10.740Z,25.54
2022-10-07T08:53:37.156Z,25.42
2022-10-07T08:56:03.418Z,25.18
2022-10-07T08:58:29.781Z,24.81
2022-10-07T09:00:56.152Z,24.27
2022-10-07T09:03:25.076Z,24.01
2022-10-07T09:05:51.829Z,23.92
2022-10-07T09:08:18.542Z,23.89
2022-10-07T09:10:44.920Z,23.90
2022-10-07T09:13:11.666Z,23.93
2022-10-07T09:15:38.103Z,23.94
2022-10-07T09:18:04.511Z,23.98
2022-10-07T09:20:30.767Z,23.96
2022-10-07T09:22:57.064Z,23.97
2022-10-07T09:25:23.385Z,23.98
2022-10-07T09:27:49.667Z,24.01
2022-10-07T09:30:16.077Z,24.04
2022-10-07T09:32:42.441Z,24.06
2022-10-07T09:35:08.785Z,24.08
2022-10-07T09:37:35.091Z,24.09
2022-10-07T09:40:01.383Z,24.12
2022-10-07T09:42:28.016Z,24.13
2022-10-07T09:44:54.351Z,24.15
2022-10-07T09:47:20.736Z,24.16
2022-10-07T09:49:47.138Z,24.17
2022-10-07T09:52:13.723Z,24.19
2022-10-07T09:54:40.459Z,24.20
2022-10-07T09:57:06.735Z,24.23
2022-10-07T09:59:33.099Z,24.25
2022-10-07T10:01:59.468Z,24.26
2022-10-07T10:04:25.961Z,24.27
2022-10-07T10:06:52.423Z,24.29
2022-10-07T10:09:20.316Z,24.29
2022-10-07T10:11:46.776Z,24.30
2022-10-07T10:14:13.161Z,24.32
2022-10-07T10:16:39.490Z,24.33
2022-10-07T10:19:06.026Z,24.36
2022-10-07T10:21:32.417Z,24.37
2022-10-07T10:23:58.702Z,24.38
2022-10-07T10:26:27.263Z,24.41
2022-10-07T10:28:57.385Z,24.43
2022-10-07T10:31:23.813Z,24.45
2022-10-07T10:33:50.191Z,24.47
2022-10-07T10:36:16.694Z,24.49
2022-10-07T10:38:43.125Z,24.52
2022-10-07T10:41:11.960Z,24.55
2022-10-07T10:43:38.311Z,24.57
2022-10-07T10:46:04.794Z,24.60
2022-10-07T10:48:31.113Z,24.61
2022-10-07T10:50:57.824Z,24.63
2022-10-07T10:53:24.119Z,24.66
2022-10-07T10:55:51.068Z,24.68
2022-10-07T10:58:17.357Z,24.70
2022-10-07T11:00:43.816Z,24.70
2022-10-07T11:03:10.076Z,24.72
2022-10-07T11:05:36.557Z,24.72
2022-10-07T11:08:02.916Z,24.74
2022-10-07T11:10:29.241Z,24.75
2022-10-07T11:12:55.677Z,24.78
2022-10-07T11:15:22.058Z,24.78
2022-10-07T11:17:48.375Z,24.78
2022-10-07T11:20:14.722Z,24.80
2022-10-07T11:22:41.581Z,24.80
2022-10-07T11:25:07.874Z,24.80
2022-10-07T11:27:34.366Z,24.82
2022-10-07T11:30:00.662Z,24.83
2022-10-07T11:32:27.011Z,24.84
2022-10-07T11:34:54.813Z,24.84
2022-10-07T11:37:21.665Z,24.86
2022-10-07T11:39:48.263Z,24.87
2022-10-07T11:42:14.618Z,24.87
2022-10-07T11:44:41.517Z,24.88
2022-10-07T11:47:07.804Z,24.88
2022-10-07T11:49:34.586Z,24.89
2022-10-07T11:52:01.041Z,24.90
2022-10-07T11:54:27.938Z,24.90
2022-10-07T11:56:57.068Z,24.93
2022-10-07T11:59:23.356Z,24.93
2022-10-07T12:01:50.384Z,24.93
2022-10-07T12:04:16.807Z,24.95
2022-10-07T12:06:43.472Z,24.95
2022-10-07T12:09:09.822Z,24.96
2022-10-07T12:11:36.221Z,24.95
2022-10-07T12:14:02.597Z,24.96
2022-10-07T12:16:28.986Z,24.97
2022-10-07T12:18:55.499Z,24.97
2022-10-07T12:21:21.883Z,24.97
2022-10-07T12:23:48.220Z,24.98
2022-10-07T12:26:14.602Z,24.98
2022-10-07T12:28:41.453Z,24.98
2022-10-07T12:31:07.866Z,24.99
2022-10-07T12:33:34.400Z,24.99
2022-10-07T12:36:01.227Z,25.00
2022-10-07T12:38:27.662Z,25.01
2022-10-07T12:40:54.292Z,25.01
2022-10-07T12:43:20.591Z,25.02
2022-10-07T12:45:47.040Z,25.03
2022-10-07T12:48:13.462Z,25.02
2022-10-07T12:50:40.165Z,25.04
2022-10-07T12:53:06.554Z,25.04
2022-10-07T12:55:32.988Z,25.03
2022-10-07T12:57:59.267Z,25.03
2022-10-07T13:00:25.615Z,25.03
2022-10-07T13:02:51.918Z,25.04
2022-10-07T13:05:18.173Z,25.04
2022-10-07T13:07:44.423Z,25.05
2022-10-07T13:10:10.716Z,25.02
2022-10-07T13:12:37.027Z,25.03
2022-10-07T13:15:03.400Z,25.03
2022-10-07T13:17:29.864Z,25.00
2022-10-07T13:19:56.220Z,25.00
2022-10-07T13:22:22.597Z,24.98
2022-10-07T13:24:48.930Z,24.97
2022-10-07T13:27:16.235Z,24.94
2022-10-07T13:29:42.711Z,24.92
2022-10-07T13:32:09.049Z,24.90
2022-10-07T13:34:35.635Z,24.88
2022-10-07T13:37:03.091Z,24.87
2022-10-07T13:39:33.991Z,24.85
2022-10-07T13:42:01.115Z,24.84
2022-10-07T13:44:27.935Z,24.83
2022-10-07T13:47:00.776Z,24.79
2022-10-07T13:49:36.418Z,24.77
2022-10-07T13:52:02.841Z,24.76
2022-10-07T13:54:29.602Z,24.74
2022-10-07T13:56:56.061Z,24.71
2022-10-07T13:59:22.807Z,24.69
2022-10-07T14:01:49.194Z,24.66
2022-10-07T14:04:15.860Z,24.65
2022-10-07T14:06:42.220Z,24.61
2022-10-07T14:09:08.819Z,24.61
2022-10-07T14:11:35.065Z,24.59
2022-10-07T14:14:04.511Z,24.56
2022-10-07T14:16:33.998Z,24.54
2022-10-07T14:19:00.441Z,24.52
2022-10-07T14:21:26.698Z,24.50
2022-10-07T14:23:53.534Z,24.48
2022-10-07T14:26:22.106Z,24.45
2022-10-07T14:28:48.409Z,24.44
2022-10-07T14:31:14.945Z,24.42
2022-10-07T14:33:41.312Z,24.39
2022-10-07T14:36:07.599Z,24.37
2022-10-07T14:38:33.910Z,24.36
2022-10-07T14:41:03.338Z,24.33
2022-10-07T14:43:29.565Z,24.31
2022-10-07T14:45:56.367Z,24.29
2022-10-07T14:48:22.768Z,24.28
2022-10-07T14:50:49.117Z,24.26
2022-10-07T14:53:15.462Z,24.23
2022-10-07T14:55:41.994Z,24.21
2022-10-07T14:58:08.444Z,24.19
2022-10-07T15:00:39.363Z,24.17
2022-10-07T15:03:06.018Z,24.14
2022-10-07T15:05:32.394Z,24.13
2022-10-07T15:07:58.686Z,24.10
2022-10-07T15:10:24.994Z,24.07
2022-10-07T15:12:51.319Z,24.06
2022-10-07T15:15:17.783Z,24.04
2022-10-07T15:17:44.100Z,24.00
2022-10-07T15:20:10.422Z,23.98
2022-10-07T15:22:36.844Z,23.97
2022-10-07T15:25:03.160Z,23.94
2022-10-07T15:27:29.579Z,23.92
2022-10-07T15:29:55.887Z,23.91
2022-10-07T15:32:22.255Z,23.89
2022-10-07T15:34:48.566Z,23.85
2022-10-07T15:37:14.858Z,23.83
2022-10-07T15:39:41.157Z,23.81
2022-10-07T15:42:07.473Z,23.78
2022-10-07T15:44:33.950Z,23.76
2022-10-07T15:47:00.247Z,23.73
2022-10-07T15:49:26.573Z,23.72
2022-10-07T15:51:52.911Z,23.68
2022-10-07T15:54:19.275Z,23.66
2022-10-07T15:56:45.584Z,23.65
2022-10-07T15:59:11.900Z,23.62
2022-10-07T16:01:38.783Z,23.59
2022-10-07T16:04:05.810Z,23.56
2022-10-07T16:06:34.531Z,23.54
2022-10-07T16:09:01.318Z,23.51
2022-10-07T16:11:27.888Z,23.48
2022-10-07T16:13:54.174Z,23.45
2022-10-07T16:16:20.887Z,23.42
2022-10-07T16:18:47.302Z,23.39
2022-10-07T16:21:13.705Z,23.36
2022-10-07T16:23:40.127Z,23.33
2022-10-07T16:26:06.406Z,23.30
2022-10-07T16:28:32.753Z,23.27
2022-10-07T16:30:59.564Z,23.24
2022-10-07T16:33:25.976Z,23.21
2022-10-07T16:35:52.503Z,23.17
2022-10-07T16:38:18.987Z,23.14
2022-10-07T16:40:45.515Z,23.12
2022-10-07T16:43:11.959Z,23.09
2022-10-07T16:45:38.324Z,23.05
2022-10-07T16:48:06.760Z,23.02
2022-10-07T16:50:33.324Z,22.99
2022-10-07T16:52:59.835Z,22.97
2022-10-07T16:55:27.556Z,22.93
2022-10-07T16:57:53.932Z,22.90
2022-10-07T17:00:20.394Z,22.87
2022-10-07T17:02:46.738Z,22.85
2022-10-07T17:05:13.196Z,22.83
2022-10-07T17:07:39.864Z,22.81
2022-10-07T17:10:06.373Z,22.76
2022-10-07T17:12:33.125Z,22.73
2022-10-07T17:14:59.558Z,22.71
2022-10-07T17:17:25.924Z,22.69
2022-10-07T17:19:52.434Z,22.66
2022-10-07T17:22:21.989Z,22.64
2022-10-07T17:24:48.420Z,22.60
2022-10-07T17:27:14.869Z,22.58
2022-10-07T17:29:41.357Z,22.55
2022-10-07T17:32:07.621Z,22.52
2022-10-07T17:34:33.892Z,22.50
2022-10-07T17:37:00.272Z,22.47
2022-10-07T17:39:26.979Z,22.44
2022-10-07T17:41:53.324Z,22.42
2022-10-07T17:44:20.201Z,22.38
2022-10-07T17:46:47.177Z,22.35
2022-10-07T17:49:13.683Z,22.33
2022-10-07T17:51:39.947Z,22.30
2022-10-07T17:54:06.461Z,22.28
2022-10-07T17:56:32.863Z,22.26
2022-10-07T17:59:00.203Z,22.23
2022-10-07T18:01:26.560Z,22.21
2022-10-07T18:03:53.409Z,22.19
2022-10-07T18:06:19.705Z,22.16
2022-10-07T18:08:46.004Z,22.15
2022-10-07T18:11:12.325Z,22.13
2022-10-07T18:13:38.666Z,22.11
2022-10-07T18:16:05.626Z,22.07
2022-10-07T18:18:31.917Z,22.05
2022-10-07T18:20:58.287Z,22.04
2022-10-07T18:23:27.606Z,22.02
2022-10-07T18:25:53.877Z,21.99
2022-10-07T18:28:20.258Z,21.97
2022-10-07T18:30:46.551Z,21.96
2022-10-07T18:33:13.225Z,21.93
2022-10-07T18:35:39.628Z,21.92
2022-10-07T18:38:05.915Z,21.90
2022-10-07T18:40:35.078Z,21.88
2022-10-07T18:43:01.351Z,21.86
2022-10-07T18:45:28.329Z,21.84
2022-10-07T18:47:54.605Z,21.83
2022-10-07T18:50:20.895Z,21.80
2022-10-07T18:52:47.250Z,21.79
2022-10-07T18:55:13.708Z,21.77
2022-10-07T18:57:40.065Z,21.75
2022-10-07T19:00:06.705Z,21.73
2022-10-07T19:02:33.582Z,21.71
2022-10-07T19:04:59.996Z,21.70
2022-10-07T19:07:27.053Z,21.67
2022-10-07T19:09:53.508Z,21.66
2022-10-07T19:12:19.757Z,21.65
2022-10-07T19:14:46.071Z,21.62
2022-10-07T19:17:12.413Z,21.60
2022-10-07T19:19:39.983Z,21.59
2022-10-07T19:22:06.303Z,21.41
2022-10-07T19:24:32.583Z,21.55
2022-10-07T19:26:58.851Z,21.54
2022-10-07T19:29:25.189Z,21.52
2022-10-07T19:31:51.827Z,21.51
2022-10-07T19:34:18.158Z,21.49
2022-10-07T19:36:44.440Z,21.47
2022-10-07T19:39:10.788Z,21.46
2022-10-07T19:41:37.208Z,21.44
2022-10-07T19:44:03.586Z,21.42
2022-10-07T19:46:29.919Z,21.40
2022-10-07T19:48:56.199Z,21.38
2022-10-07T19:51:22.860Z,21.36
2022-10-07T19:53:49.198Z,21.35
2022-10-07T19:56:15.487Z,21.34
2022-10-07T19:58:41.897Z,21.32
2022-10-07T20:01:08.186Z,21.30
2022-10-07T20:03:34.746Z,21.28
2022-10-07T20:06:01.201Z,21.27
2022-10-07T20:08:27.538Z,21.25
2022-10-07T20:10:54.055Z,21.22
2022-10-07T20:13:20.368Z,21.20
2022-10-07T20:15:46.778Z,21.18
2022-10-07T20:18:13.197Z,21.17
2022-10-07T20:20:39.768Z,21.15
2022-10-07T20:23:06.018Z,21.15
2022-10-07T20:25:32.390Z,21.13
2022-10-07T20:27:58.842Z,21.11
2022-10-07T20:30:25.385Z,21.10
2022-10-07T20:32:51.749Z,21.08
2022-10-07T20:35:18.198Z,21.07
2022-10-07T20:37:47.589Z,21.06
2022-10-07T20:40:13.983Z,21.04
2022-10-07T20:42:43.337Z,21.02
2022-10-07T20:45:13.095Z,21.02
2022-10-07T20:47:40.509Z,21.00
2022-10-07T20:50:06.906Z,20.99
2022-10-07T20:52:33.254Z,20.97
2022-10-07T20:54:59.641Z,20.96
2022-10-07T20:57:26.050Z,20.95
2022-10-07T20:59:55.357Z,20.94
2022-10-07T21:02:21.772Z,20.93
2022-10-07T21:04:48.386Z,20.92
2022-10-07T21:07:14.938Z,20.91
2022-10-07T21:09:41.311Z,20.90
2022-10-07T21:12:07.810Z,20.88
2022-10-07T21:14:34.139Z,20.88
2022-10-07T21:17:06.814Z,20.85
2022-10-07T21:19:33.603Z,20.69
2022-10-07T21:22:00.093Z,20.83
2022-10-07T21:24:28.531Z,20.82
2022-10-07T21:26:54.911Z,20.80
2022-10-07T21:29:21.196Z,20.79
2022-10-07T21:31:47.652Z,20.78
2022-10-07T21:34:14.067Z,20.77
2022-10-07T21:36:40.865Z,20.76
2022-10-07T21:39:07.362Z,20.74
2022-10-07T21:41:34.272Z,20.68
2022-10-07T21:44:00.777Z,20.73
2022-10-07T21:46:27.340Z,20.70
2022-10-07T21:48:54.658Z,20.71
2022-10-07T21:51:21.004Z,20.70
2022-10-07T21:53:47.488Z,20.68
2022-10-07T21:56:13.860Z,20.68
2022-10-07T21:58:40.488Z,20.67
2022-10-07T22:01:06.973Z,20.66
2022-10-07T22:03:36.267Z,20.65
2022-10-07T22:06:02.609Z,20.64
2022-10-07T22:08:29.170Z,20.62
2022-10-07T22:10:55.517Z,20.62
2022-10-07T22:13:22.074Z,20.60
2022-10-07T22:15:48.446Z,20.59
2022-10-07T22:18:14.887Z,20.58
2022-10-07T22:20:41.234Z,20.57
2022-10-07T22:23:07.818Z,20.57
2022-10-07T22:25:34.112Z,20.55
2022-10-07T22:28:00.415Z,20.54
2022-10-07T22:30:26.809Z,20.52
2022-10-07T22:32:53.201Z,20.52
2022-10-07T22:35:19.477Z,20.51
2022-10-07T22:37:46.208Z,20.50
2022-10-07T22:40:12.688Z,20.49
2022-10-07T22:42:39.270Z,20.47
2022-10-07T22:45:05.591Z,20.47
2022-10-07T22:47:32.062Z,20.45
2022-10-07T22:49:58.391Z,20.43
2022-10-07T22:52:24.881Z,20.43
2022-10-07T22:54:51.283Z,20.43
2022-10-07T22:57:18.779Z,20.41
2022-10-07T22:59:45.433Z,20.40
2022-10-07T23:02:11.893Z,20.39
2022-10-07T23:04:38.141Z,20.38
2022-10-07T23:07:04.480Z,20.37
2022-10-07T23:09:31.153Z,20.36
2022-10-07T23:11:57.475Z,20.35
2022-10-07T23:14:23.882Z,20.34
2022-10-07T23:16:50.315Z,20.32
2022-10-07T23:19:16.626Z,20.32
2022-10-07T23:21:43.154Z,20.31
2022-10-07T23:24:09.970Z,20.30
2022-10-07T23:26:36.607Z,20.29
2022-10-07T23:29:03.003Z,20.28
2022-10-07T23:31:29.890Z,20.27
2022-10-07T23:33:56.247Z,20.27
2022-10-07T23:36:24.578Z,20.25
2022-10-07T23:38:52.134Z,20.26
2022-10-07T23:41:18.444Z,20.24
2022-10-07T23:43:44.826Z,20.23
2022-10-07T23:46:13.554Z,20.22
2022-10-07T23:48:39.886Z,20.21
2022-10-07T23:51:06.259Z,20.20
2022-10-07T23:53:32.651Z,20.18
2022-10-07T23:55:59.020Z,20.17
2022-10-07T23:58:25.347Z,20.16
